| Date | Time | Temp. (oF) | Dew Point (oF) | Rel. Hum. (%) | Press. (in.) | Wind Dir. | Wind Speed (mph) | Hourly Rainfall (in.) |
|
|---|---|---|---|---|---|---|---|---|---|
| 1 | miss | miss | miss | miss | miss | miss | miss | miss | |
| 2 | 10/07 | 22:34 | 44 | 27 | 53 | 30.34 | NNW | 1 | 0.00 |
| 3 | 10/07 | 22:00 | 45 | 29 | 55 | 30.32 | W | 0 | 0.00 |
| 4 | 10/07 | 21:00 | 47 | 28 | 49 | 30.30 | WSW | 2 | 0.00 |
| 5 | 10/07 | 20:00 | 47 | 29 | 50 | 30.28 | NNW | 5 | 0.00 |
| 6 | 10/07 | 19:00 | 49 | 27 | 43 | 30.24 | NNW | 6 | 0.00 |
| 7 | 10/07 | 18:00 | 51 | 25 | 37 | 30.20 | W | 6 | 0.00 |
| 8 | 10/07 | 17:00 | 52 | 25 | 35 | 30.17 | NW | 10 | 0.00 |
| 9 | 10/07 | 16:00 | 52 | 27 | 38 | 30.17 | W | 6 | 0.00 |
| 10 | 10/07 | 15:00 | 55 | 28 | 36 | 30.17 | NW | 11 | 0.00 |
| 11 | 10/07 | 14:00 | 52 | 30 | 43 | 30.18 | NW | 7 | 0.00 |
| 12 | 10/07 | 13:00 | 52 | 31 | 45 | 30.20 | NW | 7 | 0.00 |
| 13 | 10/07 | 12:00 | 50 | 31 | 49 | 30.20 | WNW | 9 | 0.00 |
| 14 | 10/07 | 11:00 | 51 | 32 | 50 | 30.20 | W | 16 | 0.00 |
| 15 | 10/07 | 10:00 | 49 | 33 | 54 | 30.19 | NNW | 9 | 0.00 |
| 16 | 10/07 | 09:00 | 47 | 30 | 53 | 30.18 | W | 8 | 0.00 |
| 17 | 10/07 | 08:00 | 44 | 31 | 61 | 30.16 | WSW | 5 | 0.00 |
| 18 | 10/07 | 07:00 | 44 | 30 | 58 | 30.13 | SW | 3 | 0.00 |
| 19 | 10/07 | 06:00 | 45 | 30 | 56 | 30.11 | WSW | 1 | 0.00 |
| 20 | 10/07 | 05:00 | 46 | 30 | 54 | 30.09 | SW | 3 | 0.00 |
| 21 | 10/07 | 04:00 | 47 | 29 | 51 | 30.07 | WSW | 3 | 0.00 |
| 22 | 10/07 | 03:00 | 47 | 29 | 50 | 30.06 | W | 5 | 0.00 |
| 23 | 10/07 | 02:00 | 49 | 32 | 53 | 30.06 | SW | 0 | 0.00 |
| 24 | 10/07 | 01:00 | 50 | 32 | 50 | 30.06 | WNW | 1 | 0.00 |